Terminal Aerodrome Forecast
Issued by NWS Boston, MA

Home | Current Version | Previous Version | Text Only | Print | Product List | Glossary On
Versions: 1 2 3 4 5 6 7 8 9 10 11 12 13 14 15 16 17 18 19 20 21
000
FTUS41 KBOX 262327
TAFBDL
TAF
KBDL 262327Z 2700/2806 22008KT P6SM SCT070 SCT100
     FM270100 21004KT P6SM SCT070 SCT100
     FM271700 21010G19KT P6SM VCSH BKN060
     FM272300 24009KT P6SM BKN060
     FM280300 29005KT P6SM SCT060=

USA.gov is the U.S. government's official web portal to all federal, state and local government web resources and services.